Time;durP1;ratioP1;P1;durP2;ratioP2;P2;SDS_P1;SDS_P2;PMS_P1;PMS_P2;Temp;Humidity;BMP_temperature;BMP_pressure;BME280_temperature;BME280_humidity;BME280_pressure;Samples;Min_cycle;Max_cycle;Signal;HPM_P1;HPM_P2
2022/07/22 05:02:25;;;;;;;5.20;2.75;;;;;;;24.31;44.07;100527.47;954346;27;20448;-86
2022/07/22 05:05:28;;;;;;;3.42;2.60;;;;;;;24.45;43.53;100522.34;5361105;33;31510;-87
2022/07/22 05:08:31;;;;;;;5.37;2.40;;;;;;;24.56;42.90;100518.56;5376464;27;33851;-87
2022/07/22 05:11:36;;;;;;;3.83;2.62;;;;;;;24.66;42.93;100532.37;5406915;27;33658;-87
2022/07/22 05:14:39;;;;;;;6.40;3.00;;;;;;;24.85;43.00;100526.41;5406398;27;34812;-87
2022/07/22 05:17:42;;;;;;;5.65;3.17;;;;;;;25.01;43.17;100524.50;5349838;33;33546;-87
2022/07/22 05:21:04;;;;;;;3.35;2.33;;;;;;;25.16;42.97;100527.38;5393080;27;20117;-86
2022/07/22 05:24:20;;;;;;;8.07;2.72;;;;;;;25.31;41.85;100523.81;5409608;27;31468;-86
2022/07/22 05:27:53;;;;;;;4.85;2.40;;;;;;;25.46;41.62;100517.50;5394817;27;34329;-86
2022/07/22 05:30:59;;;;;;;4.37;2.40;;;;;;;25.68;40.93;100533.78;5410662;27;34240;-86
2022/07/22 05:34:07;;;;;;;6.90;2.50;;;;;;;25.89;38.44;100534.69;5403431;27;31617;-86
2022/07/22 05:37:11;;;;;;;3.30;1.85;;;;;;;26.14;35.68;100528.28;5402279;27;33486;-87
2022/07/22 05:40:14;;;;;;;3.92;1.85;;;;;;;26.38;33.26;100532.09;5410209;27;33808;-87
2022/07/22 05:43:51;;;;;;;2.12;1.92;;;;;;;26.66;32.61;100529.88;5416500;27;33281;-87
2022/07/22 05:46:54;;;;;;;3.22;1.50;;;;;;;26.89;32.62;100532.00;5406692;27;34092;-88
2022/07/22 05:49:58;;;;;;;5.20;2.12;;;;;;;27.08;33.21;100534.94;5351173;33;33926;-87
2022/07/22 05:53:02;;;;;;;4.85;1.90;;;;;;;27.29;33.05;100535.69;5407715;27;32718;-88
2022/07/22 05:56:05;;;;;;;2.45;2.10;;;;;;;27.43;32.47;100533.09;5407488;27;33593;-86
2022/07/22 05:59:09;;;;;;;2.95;1.92;;;;;;;27.52;33.21;100538.84;5428164;27;33178;-86
2022/07/22 06:02:14;;;;;;;2.30;2.10;;;;;;;27.57;32.56;100536.88;5407262;27;34127;-87
2022/07/22 06:05:18;;;;;;;2.03;1.80;;;;;;;27.62;32.53;100538.78;5362405;27;32801;-87
2022/07/22 06:08:57;;;;;;;3.75;1.87;;;;;;;27.61;31.72;100539.06;5215161;27;21969;-85
2022/07/22 06:12:01;;;;;;;2.45;2.17;;;;;;;27.64;30.93;100544.03;5343636;33;33574;-87
2022/07/22 06:15:41;;;;;;;3.42;1.90;;;;;;;27.68;30.89;100542.34;5391140;27;34268;-86
2022/07/22 06:18:45;;;;;;;3.85;2.12;;;;;;;27.76;30.86;100539.78;5387369;27;34373;-87
2022/07/22 06:21:48;;;;;;;2.15;1.52;;;;;;;27.84;31.24;100545.84;5423870;27;32421;-87
2022/07/22 06:24:53;;;;;;;5.18;1.75;;;;;;;27.93;30.81;100546.88;5395246;27;33934;-86
2022/07/22 06:27:56;;;;;;;2.60;1.87;;;;;;;27.88;30.45;100547.75;5376181;27;31865;-87
2022/07/22 06:30:59;;;;;;;2.58;2.12;;;;;;;27.85;29.08;100540.03;5346561;33;33972;-86
2022/07/22 06:34:05;;;;;;;1.95;1.75;;;;;;;27.95;28.94;100537.16;5346254;33;33721;-87
2022/07/22 06:37:13;;;;;;;3.00;1.70;;;;;;;28.04;29.49;100551.19;5400179;27;33224;-86
2022/07/22 06:40:16;;;;;;;3.42;1.70;;;;;;;28.19;29.43;100556.59;5406130;27;33664;-86
2022/07/22 06:43:20;;;;;;;4.35;1.95;;;;;;;28.29;30.13;100541.03;5376646;27;32716;-86
2022/07/22 06:46:24;;;;;;;2.12;1.87;;;;;;;28.35;28.99;100546.22;5390987;28;33957;-86
2022/07/22 06:49:28;;;;;;;3.08;1.60;;;;;;;28.43;28.09;100544.75;5441125;27;32655;-87
2022/07/22 06:52:30;;;;;;;2.00;1.80;;;;;;;28.46;28.52;100542.25;5362419;33;33515;-87
2022/07/22 06:55:34;;;;;;;2.67;1.65;;;;;;;28.68;28.52;100538.94;5390858;27;33692;-87
2022/07/22 06:58:37;;;;;;;2.75;1.77;;;;;;;28.89;27.63;100547.81;5348734;33;32531;-87
2022/07/22 07:01:41;;;;;;;2.30;1.45;;;;;;;29.06;27.47;100533.50;5362235;33;33201;-87
2022/07/22 07:04:47;;;;;;;3.58;1.62;;;;;;;29.48;26.89;100528.19;5362403;33;33498;-87
2022/07/22 07:07:50;;;;;;;2.42;1.80;;;;;;;29.51;26.21;100531.19;5361893;33;34840;-87
2022/07/22 07:10:53;;;;;;;2.17;1.60;;;;;;;29.66;26.80;100534.88;5361801;33;33386;-87
2022/07/22 07:13:56;;;;;;;4.43;1.50;;;;;;;29.69;26.50;100531.50;5384975;27;33668;-87
2022/07/22 07:16:59;;;;;;;3.37;1.80;;;;;;;29.66;25.59;100534.88;5372527;27;33423;-87
2022/07/22 07:20:05;;;;;;;2.17;1.50;;;;;;;29.69;25.41;100532.34;5376034;27;32425;-87
2022/07/22 07:23:08;;;;;;;2.00;1.30;;;;;;;30.03;24.81;100537.59;5360658;33;34049;-87
2022/07/22 07:26:14;;;;;;;1.80;1.20;;;;;;;29.99;24.63;100528.22;5389968;27;34503;-87
2022/07/22 07:29:35;;;;;;;2.22;1.35;;;;;;;30.03;24.77;100523.72;5376769;27;34908;31
2022/07/22 07:32:38;;;;;;;1.73;1.40;;;;;;;30.10;23.98;100530.81;5322381;33;32068;-87
2022/07/22 07:35:41;;;;;;;3.08;1.42;;;;;;;30.08;24.35;100525.56;5324705;33;34315;-87
2022/07/22 07:38:44;;;;;;;1.55;1.45;;;;;;;30.45;23.88;100527.44;5326142;33;33443;-87
2022/07/22 07:41:47;;;;;;;3.10;1.40;;;;;;;30.73;23.79;100522.69;5325599;33;32120;-87
2022/07/22 07:44:57;;;;;;;1.65;1.52;;;;;;;30.97;23.22;100518.87;5325889;33;33741;-87
2022/07/22 07:48:00;;;;;;;3.47;1.45;;;;;;;31.26;23.19;100518.50;5345858;28;34693;-87
2022/07/22 07:51:03;;;;;;;5.35;1.80;;;;;;;31.48;22.86;100517.75;5380289;27;32375;-86
2022/07/22 07:54:06;;;;;;;1.80;1.40;;;;;;;31.73;23.00;100527.44;5394339;27;33315;-87
2022/07/22 07:57:14;;;;;;;4.07;1.37;;;;;;;32.20;22.05;100521.53;5379282;27;32251;-87
2022/07/22 08:00:26;;;;;;;1.33;1.23;;;;;;;32.60;21.09;100527.97;5354245;33;32271;-87
2022/07/22 08:03:29;;;;;;;;;;;;;;;32.81;21.41;100514.25;5361773;33;33403;-87
2022/07/22 08:06:32;;;;;;;1.50;1.40;;;;;;;32.93;20.26;100516.41;5436763;27;34716;-87
2022/07/22 08:09:35;;;;;;;1.77;1.45;;;;;;;32.82;20.91;100512.28;5412303;27;33148;-87
2022/07/22 08:12:38;;;;;;;3.42;1.00;;;;;;;32.92;20.09;100523.97;5390094;27;33518;-87
2022/07/22 08:15:43;;;;;;;3.22;1.20;;;;;;;32.74;20.18;100511.94;5391505;27;32388;-86
2022/07/22 08:18:49;;;;;;;1.30;1.20;;;;;;;32.71;20.56;100515.37;5366082;33;33431;-87
2022/07/22 08:21:55;;;;;;;2.42;1.45;;;;;;;32.23;20.69;100501.37;5365029;33;33590;-87
2022/07/22 08:24:59;;;;;;;3.83;1.40;;;;;;;32.24;21.14;100514.19;5346327;33;33638;-87
2022/07/22 08:28:04;;;;;;;1.83;1.37;;;;;;;32.13;21.36;100512.81;5346111;33;33874;-87
2022/07/22 08:31:06;;;;;;;5.78;1.73;;;;;;;32.10;20.92;100513.47;5347446;33;33840;-87
2022/07/22 08:34:10;;;;;;;3.10;1.90;;;;;;;32.29;20.98;100506.53;5348851;33;33491;-87
2022/07/22 08:37:14;;;;;;;2.15;1.67;;;;;;;32.68;20.97;100504.06;5345298;33;31955;-87
2022/07/22 08:40:19;;;;;;;1.42;1.17;;;;;;;32.93;19.74;100511.66;5346377;33;33466;-87
2022/07/22 08:43:24;;;;;;;1.40;1.30;;;;;;;33.09;19.68;100508.44;5343677;33;32047;-87
2022/07/22 08:46:28;;;;;;;3.30;1.10;;;;;;;33.28;19.48;100500.56;5346212;33;34930;-88
2022/07/22 08:49:35;;;;;;;1.52;1.42;;;;;;;33.15;19.81;100499.59;5348595;33;33469;-87
2022/07/22 08:52:39;;;;;;;1.52;1.40;;;;;;;33.02;19.92;100503.31;5346968;33;34391;-87
2022/07/22 08:55:46;;;;;;;1.37;1.17;;;;;;;32.90;20.38;100503.12;5354969;33;32794;-87
2022/07/22 08:58:52;;;;;;;2.28;1.25;;;;;;;33.11;20.11;100504.19;5365589;33;33856;-87
2022/07/22 09:02:03;;;;;;;2.05;1.45;;;;;;;33.39;19.44;100510.25;5378248;33;33444;-87
2022/07/22 09:05:10;;;;;;;2.72;1.33;;;;;;;33.61;19.45;100506.53;5383268;33;33345;-87
2022/07/22 09:08:52;;;;;;;2.87;1.10;;;;;;;33.80;19.27;100494.16;5373073;33;33334;-87
2022/07/22 09:12:06;;;;;;;3.53;1.60;;;;;;;34.19;19.42;100495.88;5382915;33;34152;-87
2022/07/22 09:15:09;;;;;;;2.75;1.35;;;;;;;34.23;19.30;100496.06;5369452;33;32354;-87
2022/07/22 09:18:15;;;;;;;1.37;1.20;;;;;;;34.31;18.80;100490.44;5370440;33;32316;-87
2022/07/22 09:21:20;;;;;;;1.48;1.30;;;;;;;34.16;18.84;100496.53;5385907;33;33731;-87
2022/07/22 09:24:32;;;;;;;3.83;1.33;;;;;;;34.08;19.19;100481.47;5370126;33;33481;-87
2022/07/22 09:27:36;;;;;;;1.35;1.25;;;;;;;34.43;19.39;100478.53;5369596;33;31891;-87
2022/07/22 09:30:49;;;;;;;1.40;1.23;;;;;;;34.71;18.73;100480.87;5370078;33;31758;-87
2022/07/22 09:33:53;;;;;;;2.90;1.37;;;;;;;34.84;18.88;100481.78;5383951;33;34963;-87
2022/07/22 09:36:59;;;;;;;1.92;1.45;;;;;;;34.65;18.69;100480.25;5388991;33;34050;-87
2022/07/22 09:40:16;;;;;;;1.70;1.60;;;;;;;34.43;18.88;100474.91;5422231;27;34817;-86
2022/07/22 09:43:20;;;;;;;3.85;1.45;;;;;;;34.28;19.49;100477.13;5380854;27;33274;-86
2022/07/22 09:46:41;;;;;;;3.37;1.65;;;;;;;34.35;19.03;100479.38;5351403;33;33887;-86
2022/07/22 09:49:47;;;;;;;2.45;1.50;;;;;;;34.09;19.24;100473.91;5334543;33;33926;-91
2022/07/22 09:52:53;;;;;;;2.20;1.70;;;;;;;34.57;19.14;100469.91;5335212;33;32844;-88
2022/07/22 09:56:02;;;;;;;2.00;1.80;;;;;;;34.85;18.88;100469.44;5354827;33;33793;-87
2022/07/22 09:59:05;;;;;;;2.50;1.77;;;;;;;34.49;19.22;100467.97;5357382;33;33818;-87
2022/07/22 10:02:11;;;;;;;2.12;1.83;;;;;;;34.91;19.47;100468.06;5348860;33;32726;-87
2022/07/22 10:05:18;;;;;;;1.80;1.37;;;;;;;35.08;19.24;100467.97;5401332;27;33788;-87
2022/07/22 10:08:21;;;;;;;1.85;1.45;;;;;;;35.33;18.59;100460.50;5353474;33;31848;-87
2022/07/22 10:11:26;;;;;;;1.73;1.48;;;;;;;35.56;18.81;100457.37;5353168;33;32028;-87
2022/07/22 10:14:30;;;;;;;1.67;1.48;;;;;;;35.59;18.75;100456.69;5365543;33;34014;-87
2022/07/22 10:17:37;;;;;;;1.87;1.67;;;;;;;35.91;18.33;100451.41;5350359;33;33160;-87
2022/07/22 10:20:40;;;;;;;3.22;1.60;;;;;;;35.78;18.66;100459.78;5347874;33;33487;-87
2022/07/22 10:24:06;;;;;;;3.20;1.70;;;;;;;35.98;18.12;100446.03;5347224;33;34026;-88
2022/07/22 10:27:08;;;;;;;2.65;1.45;;;;;;;36.06;18.55;100439.53;5348021;33;33527;-87
2022/07/22 10:30:15;;;;;;;1.75;1.65;;;;;;;36.44;18.03;100442.00;5348373;33;33197;-88
2022/07/22 10:33:22;;;;;;;3.80;1.80;;;;;;;36.64;18.09;100445.88;5325264;33;32196;-87
2022/07/22 10:36:46;;;;;;;1.62;1.52;;;;;;;36.68;18.53;100441.22;5346511;33;34190;-87
2022/07/22 10:40:11;;;;;;;2.08;1.87;;;;;;;37.13;17.94;100445.81;5359198;33;34620;-86
2022/07/22 10:43:20;;;;;;;1.80;1.70;;;;;;;37.48;17.76;100421.94;5336931;33;33635;-86
2022/07/22 10:46:53;;;;;;;3.58;1.75;;;;;;;37.78;17.50;100422.34;5392825;27;34275;-86
2022/07/22 10:50:37;;;;;;;2.22;1.90;;;;;;;38.14;17.30;100426.91;5363029;33;33594;-87
2022/07/22 10:53:46;;;;;;;4.47;2.03;;;;;;;38.30;16.77;100421.28;5382525;27;34352;-87
2022/07/22 10:56:51;;;;;;;5.12;2.00;;;;;;;38.72;16.75;100415.03;5348822;33;33481;-87
2022/07/22 10:59:54;;;;;;;2.22;1.83;;;;;;;38.86;17.26;100415.38;5348738;33;32212;-86
2022/07/22 11:02:57;;;;;;;4.90;2.03;;;;;;;38.97;17.09;100407.97;5350059;33;31775;-86
2022/07/22 11:06:18;;;;;;;2.95;1.73;;;;;;;39.06;16.94;100404.13;5363751;33;33403;-86
2022/07/22 11:09:30;;;;;;;2.58;2.28;;;;;;;39.46;16.85;100400.91;5362784;33;33411;-87
2022/07/22 11:12:33;;;;;;;2.10;1.90;;;;;;;39.73;16.21;100398.22;5363952;33;34802;-87
2022/07/22 11:15:36;;;;;;;4.28;2.10;;;;;;;40.37;15.68;100399.31;5392437;27;33972;-86
2022/07/22 11:18:44;;;;;;;5.00;2.30;;;;;;;40.91;15.74;100397.25;5350063;33;32144;-86
2022/07/22 11:21:57;;;;;;;2.58;2.33;;;;;;;41.11;15.22;100395.94;5366606;33;33201;-86
2022/07/22 11:25:02;;;;;;;2.67;2.08;;;;;;;41.35;15.25;100388.12;5367225;33;33507;-87
2022/07/22 11:28:05;;;;;;;3.62;2.20;;;;;;;41.89;15.15;100387.50;5350912;33;32920;-86
2022/07/22 11:31:13;;;;;;;4.43;2.22;;;;;;;42.78;14.45;100392.97;5350506;33;32187;-86
2022/07/22 11:34:16;;;;;;;4.47;2.00;;;;;;;42.60;14.75;100391.25;5362295;33;34958;-86
2022/07/22 11:37:24;;;;;;;2.28;2.08;;;;;;;43.34;14.19;100376.59;5362368;33;34991;-89
2022/07/22 11:43:58;;;;;;;3.72;2.15;;;;;;;43.94;13.57;100366.59;5360219;33;33527;-87
2022/07/22 11:47:09;;;;;;;2.42;2.22;;;;;;;44.54;13.09;100364.84;5395285;27;33258;-87
2022/07/22 11:50:12;;;;;;;4.55;2.10;;;;;;;45.17;13.06;100360.16;5348126;33;32562;-87
2022/07/22 11:53:14;;;;;;;2.65;2.10;;;;;;;45.96;12.45;100353.94;5348518;33;32456;-87
2022/07/22 11:56:17;;;;;;;3.40;2.28;;;;;;;46.27;12.41;100349.16;5348655;33;32759;-86
2022/07/22 11:59:21;;;;;;;10.65;2.87;;;;;;;45.72;12.79;100343.53;5375033;27;33229;-87
2022/07/22 12:02:25;;;;;;;4.25;2.55;;;;;;;46.93;12.03;100335.75;5374340;27;33505;-86
2022/07/22 12:05:28;;;;;;;13.32;2.42;;;;;;;47.41;11.98;100335.47;5405119;27;34309;-87
2022/07/22 12:08:48;;;;;;;6.22;2.20;;;;;;;48.40;11.39;100331.28;5365645;33;34965;-87
2022/07/22 12:11:55;;;;;;;3.17;2.28;;;;;;;48.33;10.82;100323.69;5348188;33;31769;-87
2022/07/22 12:14:58;;;;;;;4.55;2.33;;;;;;;49.15;10.69;100326.03;5347612;33;32065;-86
2022/07/22 12:18:21;;;;;;;2.20;2.03;;;;;;;48.98;10.65;100325.22;5360734;33;34308;-86
2022/07/22 12:21:27;;;;;;;2.25;2.10;;;;;;;49.23;10.80;100319.75;5348411;33;32341;-86
2022/07/22 12:24:47;;;;;;;4.30;2.50;;;;;;;49.03;10.67;100313.25;5363032;33;34004;-85
2022/07/22 12:28:01;;;;;;;3.20;2.30;;;;;;;48.51;10.93;100305.41;5351717;33;33752;-85
2022/07/22 12:31:04;;;;;;;4.53;2.58;;;;;;;49.66;10.48;100301.50;5365708;33;34782;-86
2022/07/22 12:34:32;;;;;;;3.03;1.98;;;;;;;49.94;10.09;100302.03;5376900;27;33045;-86
2022/07/22 12:37:44;;;;;;;2.62;2.20;;;;;;;50.37;9.86;100292.22;5377614;27;34058;-86
2022/07/22 12:40:46;;;;;;;3.47;2.30;;;;;;;50.69;9.71;100293.34;5408537;27;33510;-87
2022/07/22 12:43:54;;;;;;;2.45;1.92;;;;;;;50.64;9.43;100288.16;5378669;27;31813;-87
2022/07/22 12:46:57;;;;;;;2.77;2.00;;;;;;;51.69;9.13;100282.31;5363249;33;34208;-86
2022/07/22 12:50:33;;;;;;;2.53;2.20;;;;;;;51.31;9.07;100278.66;5363173;33;34758;-86
2022/07/22 12:53:36;;;;;;;2.37;2.10;;;;;;;50.66;9.54;100274.19;5349696;33;32146;-86
2022/07/22 12:56:40;;;;;;;2.03;1.92;;;;;;;51.64;9.15;100271.37;5381004;27;33081;-86
2022/07/22 12:59:52;;;;;;;5.28;2.53;;;;;;;51.66;9.01;100262.31;5384854;27;32523;-87
2022/07/22 13:02:55;;;;;;;3.42;1.87;;;;;;;52.05;8.88;100260.13;5345532;33;34303;-86
2022/07/22 13:06:03;;;;;;;14.07;2.15;;;;;;;52.69;8.45;100266.31;5332154;33;32579;-87
2022/07/22 13:09:10;;;;;;;2.87;1.75;;;;;;;52.51;8.75;100251.78;5320831;33;212928;-87
2022/07/22 13:12:19;;;;;;;2.28;1.90;;;;;;;52.38;8.57;100256.84;5326176;33;34138;-86
2022/07/22 13:15:22;;;;;;;2.15;1.83;;;;;;;52.07;8.38;100252.66;5327022;33;35215;-86
2022/07/22 13:18:27;;;;;;;3.37;2.28;;;;;;;52.09;8.40;100252.16;5328010;33;33844;-87
2022/07/22 13:21:30;;;;;;;2.28;2.08;;;;;;;52.31;8.34;100252.16;5313665;33;32076;-87
2022/07/22 13:24:33;;;;;;;3.40;2.00;;;;;;;52.01;8.39;100242.22;5326884;33;33499;-87
2022/07/22 13:27:36;;;;;;;3.55;1.95;;;;;;;51.79;8.69;100236.44;5313075;33;32322;-87
2022/07/22 13:30:38;;;;;;;2.60;2.00;;;;;;;52.45;8.48;100242.19;5313824;33;31922;-87
2022/07/22 13:33:41;;;;;;;1.90;1.70;;;;;;;52.88;7.96;100243.38;5325546;33;33551;-87
2022/07/22 13:36:44;;;;;;;2.22;1.95;;;;;;;53.36;7.45;100238.09;5328043;33;34363;-87
2022/07/22 13:39:49;;;;;;;2.53;1.97;;;;;;;51.69;8.36;100235.56;5328086;33;34766;-86
2022/07/22 13:42:51;;;;;;;4.20;2.17;;;;;;;50.98;8.95;100239.56;5340996;33;33447;-86
2022/07/22 13:45:55;;;;;;;3.10;2.20;;;;;;;50.56;9.34;100227.37;5342438;33;34739;-86
2022/07/22 13:48:58;;;;;;;2.22;2.10;;;;;;;50.43;9.44;100227.34;5335051;33;34574;-86
2022/07/22 13:52:02;;;;;;;3.35;2.20;;;;;;;50.75;9.26;100226.38;5327077;33;33135;-86
2022/07/22 13:55:05;;;;;;;3.28;2.00;;;;;;;51.17;8.50;100223.37;5326864;33;33905;-86
2022/07/22 13:58:08;;;;;;;2.40;2.20;;;;;;;51.18;8.63;100215.56;5312450;33;32701;-86
2022/07/22 14:01:11;;;;;;;2.37;2.17;;;;;;;52.31;8.11;100224.22;5311584;33;32086;-86
2022/07/22 14:04:15;;;;;;;4.12;2.10;;;;;;;51.79;8.91;100210.59;5325018;33;33355;-86
2022/07/22 14:07:17;;;;;;;3.75;2.10;;;;;;;51.47;8.83;100216.22;5311702;33;32072;-86
2022/07/22 14:10:21;;;;;;;3.30;2.33;;;;;;;49.24;9.79;100218.38;5312051;33;33441;-86
2022/07/22 14:13:24;;;;;;;3.28;2.33;;;;;;;47.86;10.72;100223.03;5311596;33;33119;-86
2022/07/22 14:16:33;;;;;;;2.50;2.30;;;;;;;48.29;10.24;100219.31;5344675;27;133344;-86
2022/07/22 14:19:59;;;;;;;4.68;2.20;;;;;;;46.68;11.79;100213.56;5377272;27;32153;-87
2022/07/22 14:23:06;;;;;;;4.03;2.62;;;;;;;44.91;13.28;100205.22;5361603;33;33965;-86
2022/07/22 14:26:09;;;;;;;2.17;2.00;;;;;;;44.34;13.61;100214.06;5363684;33;34077;-87
2022/07/22 14:29:11;;;;;;;4.22;2.50;;;;;;;42.72;15.05;100204.84;5407749;27;34854;-86
2022/07/22 14:32:18;;;;;;;2.42;2.03;;;;;;;42.28;15.09;100205.06;5365307;33;33633;-86
2022/07/22 14:35:22;;;;;;;2.50;2.30;;;;;;;41.26;15.31;100198.31;5407172;27;32150;-86
2022/07/22 14:38:25;;;;;;;3.28;2.80;;;;;;;40.60;16.37;100198.03;5346585;33;33287;-87
2022/07/22 14:41:28;;;;;;;5.03;2.65;;;;;;;40.73;16.49;100193.78;5392120;27;33294;-86
2022/07/22 14:44:30;;;;;;;5.50;2.58;;;;;;;40.79;16.54;100200.69;5356742;33;33561;-87
2022/07/22 14:47:33;;;;;;;6.35;2.80;;;;;;;40.48;16.77;100194.28;5356228;33;36701;-87
2022/07/22 14:50:36;;;;;;;4.15;2.42;;;;;;;40.02;17.71;100202.97;5371042;27;32654;-86
2022/07/22 14:53:39;;;;;;;2.72;2.53;;;;;;;39.86;17.41;100199.50;5364689;33;33625;-86
2022/07/22 14:56:41;;;;;;;6.35;2.90;;;;;;;39.50;17.84;100195.31;5350582;27;31764;-87
2022/07/22 14:59:44;;;;;;;3.10;2.55;;;;;;;39.44;17.93;100195.63;5376014;27;33407;-87
2022/07/22 15:02:47;;;;;;;3.30;2.60;;;;;;;39.41;17.91;100192.78;5330758;33;32201;-87
2022/07/22 15:05:50;;;;;;;5.65;2.87;;;;;;;39.17;17.78;100189.13;5344264;33;33720;-87
2022/07/22 15:08:52;;;;;;;6.10;2.80;;;;;;;38.79;18.40;100196.47;5403277;27;33541;-87
2022/07/22 15:11:55;;;;;;;3.40;2.80;;;;;;;38.69;18.79;100196.28;5391592;27;33347;-86
2022/07/22 15:14:58;;;;;;;3.72;3.00;;;;;;;38.59;18.76;100197.69;5361859;33;34033;-86
2022/07/22 15:18:02;;;;;;;3.92;2.75;;;;;;;38.46;18.75;100187.78;5362424;33;33889;-86
2022/07/22 15:21:05;;;;;;;6.00;2.60;;;;;;;38.34;18.84;100188.72;5407280;27;34315;-86
2022/07/22 15:24:08;;;;;;;5.60;2.55;;;;;;;38.28;19.13;100184.59;5352154;33;31840;-87
2022/07/22 15:27:11;;;;;;;5.70;3.00;;;;;;;38.37;18.58;100187.16;5362239;33;33696;-87
2022/07/22 15:30:14;;;;;;;7.18;3.00;;;;;;;38.10;19.12;100185.03;5390953;27;33533;-86
2022/07/22 15:33:16;;;;;;;5.80;3.17;;;;;;;37.94;19.22;100180.63;5348493;33;33906;-86
2022/07/22 15:36:23;;;;;;;8.40;3.10;;;;;;;37.75;19.20;100187.84;5361742;33;34965;-86
2022/07/22 15:39:25;;;;;;;3.80;2.75;;;;;;;37.45;19.66;100184.69;5348185;33;32849;-90
2022/07/22 15:42:28;;;;;;;5.37;3.08;;;;;;;37.25;19.81;100189.44;5361890;33;34808;-90
2022/07/22 15:45:32;;;;;;;3.33;3.03;;;;;;;37.30;19.58;100189.16;5352121;33;32080;-90
2022/07/22 15:48:36;;;;;;;4.15;2.75;;;;;;;37.23;19.69;100169.31;5377345;33;34618;-88
2022/07/22 15:51:38;;;;;;;5.62;2.92;;;;;;;37.24;19.91;100182.19;5373986;33;34371;-88
2022/07/22 15:54:45;;;;;;;3.70;3.00;;;;;;;37.30;19.64;100172.31;5363427;27;32258;-86
2022/07/22 16:01:09;;;;;;;3.10;2.80;;;;;;;37.22;19.96;100140.41;5345673;33;33410;-86
